sensor_id;sensor_type;location;lat;lon;timestamp;pressure;altitude;pressure_sealevel;temperature;humidity
69772;BME280;57046;45.988;18.664;2023-01-29T00:00:04;101483.34;;;3.58;86.44
69772;BME280;57046;45.988;18.664;2023-01-29T00:02:29;101488.06;;;3.51;85.35
69772;BME280;57046;45.988;18.664;2023-01-29T00:04:55;101477.94;;;3.53;86.22
69772;BME280;57046;45.988;18.664;2023-01-29T00:07:20;101481.78;;;3.63;84.97
69772;BME280;57046;45.988;18.664;2023-01-29T00:09:45;101482.03;;;3.61;85.57
69772;BME280;57046;45.988;18.664;2023-01-29T00:12:11;101479.81;;;3.53;85.28
69772;BME280;57046;45.988;18.664;2023-01-29T00:14:36;101483.28;;;3.53;85.69
69772;BME280;57046;45.988;18.664;2023-01-29T00:17:01;101485.31;;;3.46;85.32
69772;BME280;57046;45.988;18.664;2023-01-29T00:19:30;101481.53;;;3.42;85.59
69772;BME280;57046;45.988;18.664;2023-01-29T00:21:55;101492.59;;;3.51;85.91
69772;BME280;57046;45.988;18.664;2023-01-29T00:24:20;101493.94;;;3.32;86.10
69772;BME280;57046;45.988;18.664;2023-01-29T00:26:46;101494.88;;;3.42;85.59
69772;BME280;57046;45.988;18.664;2023-01-29T00:29:11;101493.09;;;3.48;86.31
69772;BME280;57046;45.988;18.664;2023-01-29T00:31:36;101495.63;;;3.38;85.94
69772;BME280;57046;45.988;18.664;2023-01-29T00:34:02;101487.06;;;3.36;86.21
69772;BME280;57046;45.988;18.664;2023-01-29T00:36:27;101489.78;;;3.41;85.39
69772;BME280;57046;45.988;18.664;2023-01-29T00:38:54;101502.78;;;3.76;84.31
69772;BME280;57046;45.988;18.664;2023-01-29T00:41:20;101493.66;;;3.50;85.30
69772;BME280;57046;45.988;18.664;2023-01-29T00:43:46;101494.44;;;3.50;85.25
69772;BME280;57046;45.988;18.664;2023-01-29T00:46:11;101509.19;;;3.53;85.83
69772;BME280;57046;45.988;18.664;2023-01-29T00:48:37;101502.41;;;3.45;85.68
69772;BME280;57046;45.988;18.664;2023-01-29T00:51:02;101514.91;;;3.62;85.64
69772;BME280;57046;45.988;18.664;2023-01-29T00:53:28;101516.94;;;3.54;85.92
69772;BME280;57046;45.988;18.664;2023-01-29T00:55:54;101512.09;;;3.51;85.53
69772;BME280;57046;45.988;18.664;2023-01-29T00:58:19;101511.78;;;3.48;85.39
69772;BME280;57046;45.988;18.664;2023-01-29T01:00:44;101508.69;;;3.56;85.29
69772;BME280;57046;45.988;18.664;2023-01-29T01:03:10;101509.44;;;3.51;84.78
69772;BME280;57046;45.988;18.664;2023-01-29T01:05:35;101505.81;;;3.41;85.37
69772;BME280;57046;45.988;18.664;2023-01-29T01:08:01;101512.22;;;3.40;84.82
69772;BME280;57046;45.988;18.664;2023-01-29T01:10:30;101519.78;;;3.48;85.31
69772;BME280;57046;45.988;18.664;2023-01-29T01:12:58;101524.84;;;3.28;85.77
69772;BME280;57046;45.988;18.664;2023-01-29T01:15:28;101520.59;;;3.48;85.38
69772;BME280;57046;45.988;18.664;2023-01-29T01:17:58;101499.34;;;3.37;85.52
69772;BME280;57046;45.988;18.664;2023-01-29T01:20:26;101514.63;;;3.41;85.46
69772;BME280;57046;45.988;18.664;2023-01-29T01:22:53;101510.72;;;3.49;84.94
69772;BME280;57046;45.988;18.664;2023-01-29T01:25:19;101518.94;;;3.42;85.01
69772;BME280;57046;45.988;18.664;2023-01-29T01:27:45;101521.94;;;3.29;85.68
69772;BME280;57046;45.988;18.664;2023-01-29T01:30:13;101497.59;;;3.26;85.47
69772;BME280;57046;45.988;18.664;2023-01-29T01:32:39;101525.16;;;3.31;85.64
69772;BME280;57046;45.988;18.664;2023-01-29T01:35:05;101505.03;;;3.24;86.08
69772;BME280;57046;45.988;18.664;2023-01-29T01:37:31;101507.97;;;3.22;86.05
69772;BME280;57046;45.988;18.664;2023-01-29T01:39:56;101521.81;;;3.19;86.41
69772;BME280;57046;45.988;18.664;2023-01-29T01:42:21;101514.66;;;3.25;86.03
69772;BME280;57046;45.988;18.664;2023-01-29T01:45:00;101525.25;;;3.36;85.73
69772;BME280;57046;45.988;18.664;2023-01-29T01:48:12;101527.28;;;3.29;85.84
69772;BME280;57046;45.988;18.664;2023-01-29T01:50:45;101533.91;;;3.43;85.19
69772;BME280;57046;45.988;18.664;2023-01-29T01:53:16;101527.19;;;3.41;85.54
69772;BME280;57046;45.988;18.664;2023-01-29T01:55:51;101526.94;;;3.42;85.74
69772;BME280;57046;45.988;18.664;2023-01-29T01:58:35;101539.41;;;3.37;85.48
69772;BME280;57046;45.988;18.664;2023-01-29T02:01:03;101544.00;;;3.41;86.25
69772;BME280;57046;45.988;18.664;2023-01-29T02:03:44;101527.59;;;3.33;85.60
69772;BME280;57046;45.988;18.664;2023-01-29T02:06:12;101541.03;;;3.38;85.29
69772;BME280;57046;45.988;18.664;2023-01-29T02:09:01;101524.44;;;3.36;84.90
69772;BME280;57046;45.988;18.664;2023-01-29T02:11:29;101545.66;;;3.42;84.99
69772;BME280;57046;45.988;18.664;2023-01-29T02:13:54;101546.94;;;3.40;85.93
69772;BME280;57046;45.988;18.664;2023-01-29T02:16:22;101541.13;;;3.43;85.39
69772;BME280;57046;45.988;18.664;2023-01-29T02:18:48;101531.88;;;3.34;85.23
69772;BME280;57046;45.988;18.664;2023-01-29T02:21:19;101548.22;;;3.37;85.45
69772;BME280;57046;45.988;18.664;2023-01-29T02:23:59;101544.13;;;3.30;85.93
69772;BME280;57046;45.988;18.664;2023-01-29T02:29:12;101543.06;;;3.31;84.92
69772;BME280;57046;45.988;18.664;2023-01-29T02:31:46;101547.03;;;3.12;85.40
69772;BME280;57046;45.988;18.664;2023-01-29T02:34:43;101541.44;;;3.13;85.68
69772;BME280;57046;45.988;18.664;2023-01-29T02:37:10;101563.38;;;3.32;84.69
69772;BME280;57046;45.988;18.664;2023-01-29T02:39:58;101553.75;;;3.31;84.85
69772;BME280;57046;45.988;18.664;2023-01-29T02:42:39;101559.34;;;3.29;85.33
69772;BME280;57046;45.988;18.664;2023-01-29T02:45:12;101565.03;;;3.16;85.06
69772;BME280;57046;45.988;18.664;2023-01-29T02:47:59;101561.03;;;3.19;85.63
69772;BME280;57046;45.988;18.664;2023-01-29T02:50:37;101558.22;;;3.08;85.17
69772;BME280;57046;45.988;18.664;2023-01-29T02:53:13;101566.63;;;3.00;85.77
69772;BME280;57046;45.988;18.664;2023-01-29T02:56:06;101556.19;;;2.99;86.28
69772;BME280;57046;45.988;18.664;2023-01-29T03:03:54;101577.06;;;2.85;85.88
69772;BME280;57046;45.988;18.664;2023-01-29T03:06:27;101586.81;;;2.96;86.11
69772;BME280;57046;45.988;18.664;2023-01-29T03:09:23;101580.72;;;3.13;85.21
69772;BME280;57046;45.988;18.664;2023-01-29T03:11:54;101578.44;;;3.04;86.31
69772;BME280;57046;45.988;18.664;2023-01-29T03:14:35;101588.22;;;2.99;86.29
69772;BME280;57046;45.988;18.664;2023-01-29T03:17:02;101578.34;;;2.99;85.90
69772;BME280;57046;45.988;18.664;2023-01-29T03:19:36;101584.50;;;3.00;85.74
69772;BME280;57046;45.988;18.664;2023-01-29T03:22:05;101581.97;;;2.93;85.63
69772;BME280;57046;45.988;18.664;2023-01-29T03:24:51;101590.09;;;2.98;85.63
69772;BME280;57046;45.988;18.664;2023-01-29T03:27:22;101579.47;;;2.87;85.42
69772;BME280;57046;45.988;18.664;2023-01-29T03:29:50;101588.72;;;2.96;85.72
69772;BME280;57046;45.988;18.664;2023-01-29T03:32:18;101586.13;;;3.01;84.63
69772;BME280;57046;45.988;18.664;2023-01-29T03:34:48;101585.88;;;3.02;84.53
69772;BME280;57046;45.988;18.664;2023-01-29T03:37:24;101594.38;;;3.16;84.22
69772;BME280;57046;45.988;18.664;2023-01-29T03:39:52;101595.09;;;3.12;84.54
69772;BME280;57046;45.988;18.664;2023-01-29T03:42:23;101583.13;;;2.97;84.85
69772;BME280;57046;45.988;18.664;2023-01-29T03:47:22;101602.34;;;2.99;84.42
69772;BME280;57046;45.988;18.664;2023-01-29T03:52:46;101600.44;;;3.12;84.49
69772;BME280;57046;45.988;18.664;2023-01-29T03:55:34;101599.56;;;3.06;84.42
69772;BME280;57046;45.988;18.664;2023-01-29T03:58:20;101590.41;;;3.02;84.11
69772;BME280;57046;45.988;18.664;2023-01-29T04:03:37;101585.88;;;3.19;83.89
69772;BME280;57046;45.988;18.664;2023-01-29T04:06:11;101584.75;;;3.15;83.79
69772;BME280;57046;45.988;18.664;2023-01-29T04:09:02;101588.94;;;3.28;82.96
69772;BME280;57046;45.988;18.664;2023-01-29T04:11:28;101587.09;;;3.28;82.69
69772;BME280;57046;45.988;18.664;2023-01-29T04:13:56;101595.59;;;3.42;82.70
69772;BME280;57046;45.988;18.664;2023-01-29T04:16:26;101583.38;;;3.29;82.45
69772;BME280;57046;45.988;18.664;2023-01-29T04:18:53;101589.69;;;3.40;82.37
69772;BME280;57046;45.988;18.664;2023-01-29T04:21:19;101583.03;;;3.42;82.83
69772;BME280;57046;45.988;18.664;2023-01-29T04:23:44;101577.59;;;3.37;82.32
69772;BME280;57046;45.988;18.664;2023-01-29T04:29:19;101584.97;;;3.30;81.80
69772;BME280;57046;45.988;18.664;2023-01-29T04:34:28;101595.34;;;3.27;82.55
69772;BME280;57046;45.988;18.664;2023-01-29T04:37:41;101582.72;;;3.22;82.34
69772;BME280;57046;45.988;18.664;2023-01-29T04:40:19;101598.97;;;3.37;82.56
69772;BME280;57046;45.988;18.664;2023-01-29T04:43:44;101596.31;;;3.37;83.32
69772;BME280;57046;45.988;18.664;2023-01-29T04:46:11;101601.41;;;3.39;83.01
69772;BME280;57046;45.988;18.664;2023-01-29T04:52:28;101572.06;;;3.05;82.49
69772;BME280;57046;45.988;18.664;2023-01-29T04:57:33;101591.56;;;3.23;82.60
69772;BME280;57046;45.988;18.664;2023-01-29T05:00:06;101595.66;;;3.30;82.92
69772;BME280;57046;45.988;18.664;2023-01-29T05:02:36;101602.78;;;3.25;82.70
69772;BME280;57046;45.988;18.664;2023-01-29T05:05:03;101601.75;;;3.09;83.05
69772;BME280;57046;45.988;18.664;2023-01-29T05:07:30;101599.41;;;3.13;82.74
69772;BME280;57046;45.988;18.664;2023-01-29T05:09:55;101598.72;;;2.89;83.59
69772;BME280;57046;45.988;18.664;2023-01-29T05:12:24;101602.34;;;2.99;83.34
69772;BME280;57046;45.988;18.664;2023-01-29T05:14:52;101608.34;;;3.06;83.14
69772;BME280;57046;45.988;18.664;2023-01-29T05:17:20;101622.78;;;3.05;83.41
69772;BME280;57046;45.988;18.664;2023-01-29T05:19:46;101623.41;;;2.96;83.80
69772;BME280;57046;45.988;18.664;2023-01-29T05:22:15;101629.88;;;3.00;83.51
69772;BME280;57046;45.988;18.664;2023-01-29T05:24:41;101618.78;;;2.91;83.17
69772;BME280;57046;45.988;18.664;2023-01-29T05:27:19;101620.53;;;2.86;83.62
69772;BME280;57046;45.988;18.664;2023-01-29T05:29:46;101625.94;;;3.02;83.79
69772;BME280;57046;45.988;18.664;2023-01-29T05:32:12;101613.84;;;4.27;100.00
69772;BME280;57046;45.988;18.664;2023-01-29T05:34:37;101613.41;;;3.53;88.94
69772;BME280;57046;45.988;18.664;2023-01-29T05:37:03;101626.59;;;3.26;84.16
69772;BME280;57046;45.988;18.664;2023-01-29T05:39:28;101614.34;;;3.14;83.42
69772;BME280;57046;45.988;18.664;2023-01-29T05:41:54;101630.63;;;3.12;83.50
69772;BME280;57046;45.988;18.664;2023-01-29T05:44:19;101628.44;;;3.09;83.54
69772;BME280;57046;45.988;18.664;2023-01-29T05:46:45;101636.69;;;3.07;82.44
69772;BME280;57046;45.988;18.664;2023-01-29T05:49:10;101635.47;;;2.98;82.86
69772;BME280;57046;45.988;18.664;2023-01-29T05:51:36;101634.31;;;2.94;82.89
69772;BME280;57046;45.988;18.664;2023-01-29T05:54:02;101622.78;;;3.05;82.04
69772;BME280;57046;45.988;18.664;2023-01-29T05:56:27;101633.28;;;2.95;82.58
69772;BME280;57046;45.988;18.664;2023-01-29T05:58:53;101640.25;;;3.13;82.39
69772;BME280;57046;45.988;18.664;2023-01-29T06:01:21;101645.06;;;2.99;82.29
69772;BME280;57046;45.988;18.664;2023-01-29T06:03:47;101656.59;;;3.17;82.02
69772;BME280;57046;45.988;18.664;2023-01-29T06:06:13;101653.34;;;3.15;82.11
69772;BME280;57046;45.988;18.664;2023-01-29T06:08:38;101640.69;;;2.93;82.02
69772;BME280;57046;45.988;18.664;2023-01-29T06:11:07;101661.56;;;2.96;81.79
69772;BME280;57046;45.988;18.664;2023-01-29T06:13:33;101643.91;;;2.79;81.97
69772;BME280;57046;45.988;18.664;2023-01-29T06:15:58;101650.91;;;2.96;82.12
69772;BME280;57046;45.988;18.664;2023-01-29T06:18:23;101647.34;;;2.91;81.79
69772;BME280;57046;45.988;18.664;2023-01-29T06:20:49;101655.69;;;2.94;81.83
69772;BME280;57046;45.988;18.664;2023-01-29T06:23:14;101662.88;;;2.94;81.30
69772;BME280;57046;45.988;18.664;2023-01-29T06:25:39;101657.31;;;2.95;81.15
69772;BME280;57046;45.988;18.664;2023-01-29T06:28:05;101662.50;;;3.02;81.27
69772;BME280;57046;45.988;18.664;2023-01-29T06:30:30;101670.91;;;3.11;80.97
69772;BME280;57046;45.988;18.664;2023-01-29T06:32:57;101636.81;;;2.84;81.35
69772;BME280;57046;45.988;18.664;2023-01-29T06:35:22;101659.88;;;2.90;81.22
69772;BME280;57046;45.988;18.664;2023-01-29T06:37:47;101670.06;;;2.93;81.54
69772;BME280;57046;45.988;18.664;2023-01-29T06:40:13;101664.25;;;2.96;81.41
69772;BME280;57046;45.988;18.664;2023-01-29T06:42:38;101673.25;;;3.07;80.36
69772;BME280;57046;45.988;18.664;2023-01-29T06:45:04;101686.22;;;3.15;80.85
69772;BME280;57046;45.988;18.664;2023-01-29T06:47:29;101667.72;;;2.97;80.74
69772;BME280;57046;45.988;18.664;2023-01-29T06:49:55;101674.91;;;2.96;81.32
69772;BME280;57046;45.988;18.664;2023-01-29T06:52:20;101671.69;;;2.94;81.54
69772;BME280;57046;45.988;18.664;2023-01-29T06:54:45;101674.72;;;2.86;82.20
69772;BME280;57046;45.988;18.664;2023-01-29T06:57:11;101691.56;;;2.87;81.88
69772;BME280;57046;45.988;18.664;2023-01-29T06:59:36;101688.88;;;2.87;81.96
69772;BME280;57046;45.988;18.664;2023-01-29T07:02:02;101678.72;;;3.00;81.80
69772;BME280;57046;45.988;18.664;2023-01-29T07:04:28;101679.88;;;3.04;81.70
69772;BME280;57046;45.988;18.664;2023-01-29T07:06:53;101682.66;;;3.10;81.55
69772;BME280;57046;45.988;18.664;2023-01-29T07:09:18;101696.53;;;3.23;81.19
69772;BME280;57046;45.988;18.664;2023-01-29T07:11:44;101688.44;;;3.06;80.49
69772;BME280;57046;45.988;18.664;2023-01-29T07:14:09;101684.03;;;3.12;81.60
69772;BME280;57046;45.988;18.664;2023-01-29T07:16:35;101689.84;;;3.09;81.43
69772;BME280;57046;45.988;18.664;2023-01-29T07:19:00;101695.50;;;2.96;81.15
69772;BME280;57046;45.988;18.664;2023-01-29T07:21:25;101685.88;;;3.12;81.10
69772;BME280;57046;45.988;18.664;2023-01-29T07:23:51;101701.09;;;3.11;81.64
69772;BME280;57046;45.988;18.664;2023-01-29T07:26:16;101687.34;;;3.02;81.62
69772;BME280;57046;45.988;18.664;2023-01-29T07:28:41;101676.66;;;3.02;81.29
69772;BME280;57046;45.988;18.664;2023-01-29T07:31:07;101699.25;;;3.12;81.66
69772;BME280;57046;45.988;18.664;2023-01-29T07:33:35;101682.56;;;3.04;81.52
69772;BME280;57046;45.988;18.664;2023-01-29T07:36:01;101702.09;;;3.22;81.79
69772;BME280;57046;45.988;18.664;2023-01-29T07:38:26;101703.63;;;3.18;80.85
69772;BME280;57046;45.988;18.664;2023-01-29T07:40:52;101688.22;;;3.08;81.67
69772;BME280;57046;45.988;18.664;2023-01-29T07:43:17;101701.13;;;3.28;82.56
69772;BME280;57046;45.988;18.664;2023-01-29T07:45:43;101697.91;;;3.26;81.75
69772;BME280;57046;45.988;18.664;2023-01-29T07:48:10;101695.13;;;3.21;81.69
69772;BME280;57046;45.988;18.664;2023-01-29T07:50:37;101696.41;;;3.18;81.63
69772;BME280;57046;45.988;18.664;2023-01-29T07:53:02;101678.59;;;3.07;81.27
69772;BME280;57046;45.988;18.664;2023-01-29T07:55:28;101688.50;;;3.23;81.02
69772;BME280;57046;45.988;18.664;2023-01-29T07:57:55;101708.75;;;3.36;81.83
69772;BME280;57046;45.988;18.664;2023-01-29T08:00:21;101707.47;;;3.38;81.93
69772;BME280;57046;45.988;18.664;2023-01-29T08:02:46;101703.75;;;3.39;81.15
69772;BME280;57046;45.988;18.664;2023-01-29T08:05:11;101668.25;;;3.11;80.79
69772;BME280;57046;45.988;18.664;2023-01-29T08:07:37;101701.88;;;3.23;81.02
69772;BME280;57046;45.988;18.664;2023-01-29T08:10:02;101702.25;;;3.32;81.17
69772;BME280;57046;45.988;18.664;2023-01-29T08:12:28;101709.47;;;3.31;81.05
69772;BME280;57046;45.988;18.664;2023-01-29T08:14:53;101697.09;;;3.25;80.93
69772;BME280;57046;45.988;18.664;2023-01-29T08:17:19;101711.00;;;3.27;81.45
69772;BME280;57046;45.988;18.664;2023-01-29T08:19:44;101718.78;;;3.29;81.64
69772;BME280;57046;45.988;18.664;2023-01-29T08:22:09;101710.31;;;3.20;81.76
69772;BME280;57046;45.988;18.664;2023-01-29T08:24:35;101712.78;;;3.22;81.49
69772;BME280;57046;45.988;18.664;2023-01-29T08:27:00;101722.50;;;3.28;81.69
69772;BME280;57046;45.988;18.664;2023-01-29T08:29:26;101707.69;;;3.37;81.34
69772;BME280;57046;45.988;18.664;2023-01-29T08:31:52;101720.16;;;3.48;81.28
69772;BME280;57046;45.988;18.664;2023-01-29T08:34:18;101723.66;;;3.65;81.00
69772;BME280;57046;45.988;18.664;2023-01-29T08:36:43;101712.81;;;3.55;81.40
69772;BME280;57046;45.988;18.664;2023-01-29T08:39:09;101718.09;;;3.50;80.27
69772;BME280;57046;45.988;18.664;2023-01-29T08:41:38;101719.94;;;3.33;80.17
69772;BME280;57046;45.988;18.664;2023-01-29T08:44:04;101725.94;;;3.40;80.58
69772;BME280;57046;45.988;18.664;2023-01-29T08:46:30;101713.63;;;3.39;79.83
69772;BME280;57046;45.988;18.664;2023-01-29T08:48:56;101710.41;;;3.53;80.67
69772;BME280;57046;45.988;18.664;2023-01-29T08:51:21;101706.81;;;3.65;81.75
69772;BME280;57046;45.988;18.664;2023-01-29T08:53:48;101726.59;;;3.64;79.31
69772;BME280;57046;45.988;18.664;2023-01-29T08:56:13;101712.47;;;3.51;79.87
69772;BME280;57046;45.988;18.664;2023-01-29T08:58:39;101717.28;;;3.66;79.45
69772;BME280;57046;45.988;18.664;2023-01-29T09:01:08;101725.13;;;3.89;78.78
69772;BME280;57046;45.988;18.664;2023-01-29T09:03:34;101720.19;;;3.98;79.35
69772;BME280;57046;45.988;18.664;2023-01-29T09:05:59;101713.78;;;3.99;79.26
69772;BME280;57046;45.988;18.664;2023-01-29T09:08:25;101723.56;;;4.10;78.95
69772;BME280;57046;45.988;18.664;2023-01-29T09:10:50;101685.53;;;3.86;78.54
69772;BME280;57046;45.988;18.664;2023-01-29T09:13:16;101715.41;;;4.00;78.33
69772;BME280;57046;45.988;18.664;2023-01-29T09:15:41;101725.56;;;4.20;78.04
69772;BME280;57046;45.988;18.664;2023-01-29T09:18:06;101723.31;;;4.28;78.72
69772;BME280;57046;45.988;18.664;2023-01-29T09:20:32;101714.59;;;4.59;75.19
69772;BME280;57046;45.988;18.664;2023-01-29T09:22:57;101709.16;;;4.11;76.42
69772;BME280;57046;45.988;18.664;2023-01-29T09:25:22;101703.50;;;3.91;77.15
69772;BME280;57046;45.988;18.664;2023-01-29T09:27:48;101715.16;;;4.18;77.22
69772;BME280;57046;45.988;18.664;2023-01-29T09:30:13;101708.50;;;4.42;76.31
69772;BME280;57046;45.988;18.664;2023-01-29T09:32:39;101696.75;;;4.43;76.73
69772;BME280;57046;45.988;18.664;2023-01-29T09:35:04;101694.81;;;4.39;77.23
69772;BME280;57046;45.988;18.664;2023-01-29T09:37:30;101694.81;;;4.39;75.83
69772;BME280;57046;45.988;18.664;2023-01-29T09:39:55;101702.97;;;4.49;75.90
69772;BME280;57046;45.988;18.664;2023-01-29T09:42:28;101705.53;;;4.39;75.58
69772;BME280;57046;45.988;18.664;2023-01-29T09:45:14;101714.34;;;4.39;76.88
69772;BME280;57046;45.988;18.664;2023-01-29T09:47:41;101719.59;;;4.51;76.68
69772;BME280;57046;45.988;18.664;2023-01-29T09:50:17;101714.88;;;4.58;75.96
69772;BME280;57046;45.988;18.664;2023-01-29T09:55:47;101707.94;;;4.40;75.10
69772;BME280;57046;45.988;18.664;2023-01-29T09:58:24;101707.56;;;4.32;74.91
69772;BME280;57046;45.988;18.664;2023-01-29T10:14:38;101713.09;;;4.47;74.73
69772;BME280;57046;45.988;18.664;2023-01-29T10:17:22;101698.78;;;4.36;75.77
69772;BME280;57046;45.988;18.664;2023-01-29T10:23:17;101712.66;;;4.33;75.45
69772;BME280;57046;45.988;18.664;2023-01-29T10:25:46;101698.41;;;4.28;74.26
69772;BME280;57046;45.988;18.664;2023-01-29T10:30:53;101706.63;;;4.21;75.18
69772;BME280;57046;45.988;18.664;2023-01-29T10:33:29;101701.09;;;4.28;75.38
69772;BME280;57046;45.988;18.664;2023-01-29T10:36:01;101697.38;;;4.12;74.71
69772;BME280;57046;45.988;18.664;2023-01-29T10:38:39;101711.38;;;4.19;74.86
69772;BME280;57046;45.988;18.664;2023-01-29T10:58:34;101701.16;;;4.54;76.41
69772;BME280;57046;45.988;18.664;2023-01-29T11:01:01;101688.25;;;4.73;84.31
69772;BME280;57046;45.988;18.664;2023-01-29T11:03:29;101691.75;;;4.95;86.94
69772;BME280;57046;45.988;18.664;2023-01-29T11:11:59;101691.31;;;4.60;77.03
69772;BME280;57046;45.988;18.664;2023-01-29T11:17:17;101697.09;;;4.30;76.47
69772;BME280;57046;45.988;18.664;2023-01-29T11:19:45;101692.63;;;4.14;75.29
69772;BME280;57046;45.988;18.664;2023-01-29T11:24:40;101698.72;;;4.31;77.81
69772;BME280;57046;45.988;18.664;2023-01-29T11:27:22;101701.53;;;4.41;81.44
69772;BME280;57046;45.988;18.664;2023-01-29T11:29:48;101695.78;;;4.33;77.10
69772;BME280;57046;45.988;18.664;2023-01-29T11:35:02;101707.72;;;4.42;77.96
69772;BME280;57046;45.988;18.664;2023-01-29T11:37:35;101710.13;;;4.22;75.78
69772;BME280;57046;45.988;18.664;2023-01-29T11:40:11;101696.78;;;4.27;80.86
69772;BME280;57046;45.988;18.664;2023-01-29T11:42:47;101690.56;;;4.43;74.85
69772;BME280;57046;45.988;18.664;2023-01-29T11:45:25;101695.44;;;4.24;75.41
69772;BME280;57046;45.988;18.664;2023-01-29T11:47:53;101690.44;;;4.11;78.46
69772;BME280;57046;45.988;18.664;2023-01-29T11:50:22;101690.03;;;4.41;92.14
69772;BME280;57046;45.988;18.664;2023-01-29T11:52:48;101687.41;;;4.24;88.19
69772;BME280;57046;45.988;18.664;2023-01-29T11:55:20;101679.91;;;4.04;80.92
69772;BME280;57046;45.988;18.664;2023-01-29T11:58:17;101691.81;;;3.97;76.24
69772;BME280;57046;45.988;18.664;2023-01-29T12:00:48;101679.66;;;4.06;75.83
69772;BME280;57046;45.988;18.664;2023-01-29T12:03:16;101685.09;;;4.11;82.28
69772;BME280;57046;45.988;18.664;2023-01-29T12:05:58;101686.69;;;4.12;77.82
69772;BME280;57046;45.988;18.664;2023-01-29T12:08:31;101677.16;;;3.99;76.33
69772;BME280;57046;45.988;18.664;2023-01-29T12:11:23;101668.91;;;4.01;77.30
69772;BME280;57046;45.988;18.664;2023-01-29T12:13:56;101671.19;;;3.76;73.75
69772;BME280;57046;45.988;18.664;2023-01-29T12:16:38;101662.53;;;3.69;73.62
69772;BME280;57046;45.988;18.664;2023-01-29T12:19:26;101667.63;;;3.87;75.35
69772;BME280;57046;45.988;18.664;2023-01-29T12:22:01;101657.75;;;3.87;75.21
69772;BME280;57046;45.988;18.664;2023-01-29T12:24:39;101672.38;;;3.85;74.94
69772;BME280;57046;45.988;18.664;2023-01-29T12:27:30;101667.97;;;3.74;74.28
69772;BME280;57046;45.988;18.664;2023-01-29T12:37:59;101652.88;;;3.84;74.54
69772;BME280;57046;45.988;18.664;2023-01-29T12:40:54;101653.38;;;3.65;72.64
69772;BME280;57046;45.988;18.664;2023-01-29T12:43:27;101632.69;;;3.93;74.31
69772;BME280;57046;45.988;18.664;2023-01-29T12:45:57;101637.91;;;3.67;71.94
69772;BME280;57046;45.988;18.664;2023-01-29T12:48:29;101644.88;;;3.84;73.28
69772;BME280;57046;45.988;18.664;2023-01-29T12:51:03;101643.97;;;3.79;72.03
69772;BME280;57046;45.988;18.664;2023-01-29T12:53:34;101626.44;;;4.04;74.03
69772;BME280;57046;45.988;18.664;2023-01-29T12:56:28;101649.59;;;3.99;72.18
69772;BME280;57046;45.988;18.664;2023-01-29T12:58:56;101634.50;;;3.88;74.96
69772;BME280;57046;45.988;18.664;2023-01-29T13:01:32;101647.09;;;5.33;89.43
69772;BME280;57046;45.988;18.664;2023-01-29T13:06:34;101620.69;;;4.39;75.04
69772;BME280;57046;45.988;18.664;2023-01-29T13:09:04;101616.69;;;4.63;74.31
69772;BME280;57046;45.988;18.664;2023-01-29T13:14:26;101620.75;;;4.44;70.50
69772;BME280;57046;45.988;18.664;2023-01-29T13:20:16;101617.47;;;3.94;70.49
69772;BME280;57046;45.988;18.664;2023-01-29T13:22:45;101614.50;;;3.74;71.43
69772;BME280;57046;45.988;18.664;2023-01-29T13:25:19;101614.31;;;3.80;70.82
69772;BME280;57046;45.988;18.664;2023-01-29T13:27:45;101625.97;;;3.91;71.44
69772;BME280;57046;45.988;18.664;2023-01-29T13:30:31;101623.94;;;3.98;69.23
69772;BME280;57046;45.988;18.664;2023-01-29T13:33:00;101635.38;;;4.37;70.43
69772;BME280;57046;45.988;18.664;2023-01-29T13:35:26;101630.03;;;4.15;69.33
69772;BME280;57046;45.988;18.664;2023-01-29T13:37:52;101627.78;;;4.50;72.61
69772;BME280;57046;45.988;18.664;2023-01-29T13:40:27;101632.78;;;4.42;68.27
69772;BME280;57046;45.988;18.664;2023-01-29T13:42:55;101619.94;;;4.44;68.23
69772;BME280;57046;45.988;18.664;2023-01-29T13:48:16;101606.03;;;4.69;67.91
69772;BME280;57046;45.988;18.664;2023-01-29T13:50:44;101612.41;;;4.63;67.12
69772;BME280;57046;45.988;18.664;2023-01-29T13:53:23;101619.25;;;4.53;66.34
69772;BME280;57046;45.988;18.664;2023-01-29T13:55:49;101621.16;;;4.31;67.93
69772;BME280;57046;45.988;18.664;2023-01-29T14:00:56;101632.28;;;4.23;68.48
69772;BME280;57046;45.988;18.664;2023-01-29T14:13:46;101632.06;;;3.86;64.06
69772;BME280;57046;45.988;18.664;2023-01-29T14:18:49;101643.66;;;3.58;63.57
69772;BME280;57046;45.988;18.664;2023-01-29T14:21:22;101634.81;;;3.75;64.03
69772;BME280;57046;45.988;18.664;2023-01-29T14:23:53;101626.75;;;3.70;64.71
69772;BME280;57046;45.988;18.664;2023-01-29T14:29:06;101633.28;;;3.79;65.67
69772;BME280;57046;45.988;18.664;2023-01-29T14:31:51;101639.41;;;3.96;65.05
69772;BME280;57046;45.988;18.664;2023-01-29T14:34:35;101630.56;;;3.95;65.08
69772;BME280;57046;45.988;18.664;2023-01-29T14:39:46;101624.00;;;4.03;62.87
69772;BME280;57046;45.988;18.664;2023-01-29T14:45:21;101617.28;;;4.00;62.82
69772;BME280;57046;45.988;18.664;2023-01-29T14:53:01;101606.72;;;4.10;66.04
69772;BME280;57046;45.988;18.664;2023-01-29T14:55:34;101623.38;;;4.18;64.41
69772;BME280;57046;45.988;18.664;2023-01-29T14:58:02;101618.59;;;4.20;64.67
69772;BME280;57046;45.988;18.664;2023-01-29T15:00:32;101614.97;;;4.09;65.17
69772;BME280;57046;45.988;18.664;2023-01-29T15:02:59;101605.41;;;4.13;65.39
69772;BME280;57046;45.988;18.664;2023-01-29T15:05:30;101609.31;;;4.27;65.67
69772;BME280;57046;45.988;18.664;2023-01-29T15:10:50;101613.34;;;4.30;65.45
69772;BME280;57046;45.988;18.664;2023-01-29T15:13:31;101607.41;;;4.01;64.61
69772;BME280;57046;45.988;18.664;2023-01-29T15:16:20;101598.19;;;4.14;65.55
69772;BME280;57046;45.988;18.664;2023-01-29T15:18:51;101609.19;;;4.17;64.95